Map

Track Data

SID SEASON NUMBER BASIN SUBBASIN NAME ISO_TIME NATURE LAT LON WMO_WIND WMO_PRES WMO_AGENCY TRACK_TYPE DIST2LAND LANDFALL IFLAG USA_AGENCY USA_ATCF_ID USA_LAT USA_LON USA_RECORD USA_STATUS USA_WIND USA_PRES USA_SSHS USA_R34_NE USA_R34_SE USA_R34_SW USA_R34_NW USA_R50_NE USA_R50_SE USA_R50_SW USA_R50_NW USA_R64_NE USA_R64_SE USA_R64_SW USA_R64_NW USA_POCI USA_ROCI USA_RMW USA_EYE TOKYO_LAT TOKYO_LON TOKYO_GRADE TOKYO_WIND TOKYO_PRES TOKYO_R50_DIR TOKYO_R50_LONG TOKYO_R50_SHORT TOKYO_R30_DIR TOKYO_R30_LONG TOKYO_R30_SHORT TOKYO_LAND CMA_LAT CMA_LON CMA_CAT CMA_WIND CMA_PRES HKO_LAT HKO_LON HKO_CAT HKO_WIND HKO_PRES NEWDELHI_LAT NEWDELHI_LON NEWDELHI_GRADE NEWDELHI_WIND NEWDELHI_PRES NEWDELHI_CI NEWDELHI_DP NEWDELHI_POCI REUNION_LAT REUNION_LON REUNION_TYPE REUNION_WIND REUNION_PRES REUNION_TNUM REUNION_CI REUNION_RMW REUNION_R34_NE REUNION_R34_SE REUNION_R34_SW REUNION_R34_NW REUNION_R50_NE REUNION_R50_SE REUNION_R50_SW REUNION_R50_NW REUNION_R64_NE REUNION_R64_SE REUNION_R64_SW REUNION_R64_NW BOM_LAT BOM_LON BOM_TYPE BOM_WIND BOM_PRES BOM_TNUM BOM_CI BOM_RMW BOM_R34_NE BOM_R34_SE BOM_R34_SW BOM_R34_NW BOM_R50_NE BOM_R50_SE BOM_R50_SW BOM_R50_NW BOM_R64_NE BOM_R64_SE BOM_R64_SW BOM_R64_NW BOM_ROCI BOM_POCI BOM_EYE BOM_POS_METHOD BOM_PRES_METHOD NADI_LAT NADI_LON NADI_CAT NADI_WIND NADI_PRES WELLINGTON_LAT WELLINGTON_LON WELLINGTON_WIND WELLINGTON_PRES DS824_LAT DS824_LON DS824_STAGE DS824_WIND DS824_PRES TD9636_LAT TD9636_LON TD9636_STAGE TD9636_WIND TD9636_PRES TD9635_LAT TD9635_LON TD9635_WIND TD9635_PRES TD9635_ROCI NEUMANN_LAT NEUMANN_LON NEUMANN_CLASS NEUMANN_WIND NEUMANN_PRES MLC_LAT MLC_LON MLC_CLASS MLC_WIND MLC_PRES USA_GUST BOM_GUST BOM_GUST_PER REUNION_GUST REUNION_GUST_PER USA_SEAHGT USA_SEARAD_NE USA_SEARAD_SE USA_SEARAD_SW USA_SEARAD_NW STORM_SPEED STORM_DIR
1946251N11165 1946 52 WP MM PRISCILL 1946-09-08 00:00:00 TS 11.2000 164.900 main 2158 2115 O________OOO__ jtwc_wp WP111946 11.2000 164.900 30 -1 11.2000 164.900 TC 30 11.2000 164.900 1 30 11.2000 164.900 30 1002 60 19 285
1946251N11165 1946 52 WP MM PRISCILL 1946-09-08 03:00:00 TS 11.4456 163.952 main 2115 2079 P________PPP__ WP111946 11.4459 163.915 32 -1 11.4459 163.915 TC 32 11.4447 164.062 1 32 11.4459 163.915 32 1001 90 19 285
1946251N11165 1946 52 WP MM PRISCILL 1946-09-08 06:00:00 TS 11.7002 163.052 main 2081 2049 O________OPO__ jtwc_wp WP111946 11.7000 163.000 35 0 11.7000 163.000 TC 35 11.7007 163.209 1 35 11.7000 163.000 35 1000 120 18 287
1946251N11165 1946 52 WP MM PRISCILL 1946-09-08 09:00:00 TS 11.9780 162.226 main 2052 2029 P________PPP__ WP111946 11.9769 162.192 37 0 11.9769 162.192 TC 37 11.9813 162.327 1 37 11.9769 162.192 37 999 150 17 290
1946251N11165 1946 52 WP MM PRISCILL 1946-09-08 12:00:00 TS 12.3000 161.400 main 2033 2016 O________OOO__ jtwc_wp WP111946 12.3000 161.400 40 0 12.3000 161.400 TC 40 12.3000 161.400 2 40 12.3000 161.400 40 998 180 18 293
1946251N11165 1946 52 WP MM PRISCILL 1946-09-08 15:00:00 TS 12.6851 160.493 main 2020 2008 P________PPP__ WP111946 12.6923 160.515 42 0 12.6923 160.515 TC 42 12.6633 160.427 2 42 12.6923 160.515 42 997 180 20 294
1946251N11165 1946 52 WP MM PRISCILL 1946-09-08 18:00:00 TS 13.0878 159.565 main 2013 1998 O________OPO__ jtwc_wp WP111946 13.1000 159.600 45 0 13.1000 159.600 TC 45 13.0514 159.459 2 45 13.1000 159.600 45 996 180 20 293
1946251N11165 1946 52 WP MM PRISCILL 1946-09-08 21:00:00 TS 13.4643 158.609 main 2004 1993 P________PPP__ WP111946 13.4728 158.625 47 0 13.4728 158.625 TC 47 13.4386 158.562 2 47 13.4728 158.625 47 994 180 19 293
1946251N11165 1946 52 WP MM PRISCILL 1946-09-09 00:00:00 TS 13.8000 157.800 main 1999 1995 O________OOO__ jtwc_wp WP111946 13.8000 157.800 50 0 13.8000 157.800 TC 50 13.8000 157.800 2 50 13.8000 157.800 50 993 180 14 295
1946251N11165 1946 52 WP MM PRISCILL 1946-09-09 03:00:00 TS 14.0608 157.312 main 2010 2006 P________PPP__ WP111946 14.0569 157.325 52 0 14.0569 157.325 TC 52 14.0726 157.273 2 14.0569 157.325 52 990 180 10 302
1946251N11165 1946 52 WP MM PRISCILL 1946-09-09 06:00:00 TS 14.3059 156.971 main 2019 2016 O________OPO__ jtwc_wp WP111946 14.3000 157.000 55 0 14.3000 157.000 TC 55 14.3238 156.882 2 14.3000 157.000 55 988 180 9 307
1946251N11165 1946 52 WP MM PRISCILL 1946-09-09 09:00:00 TS 14.5801 156.593 main 2037 2034 P________PPP__ WP111946 14.5774 156.607 57 0 14.5774 156.607 TC 57 14.5882 156.550 2 14.5774 156.607 57 985 180 10 309
1946251N11165 1946 52 WP MM PRISCILL 1946-09-09 12:00:00 TS 14.9000 156.200 main 2056 2056 O________OOO__ jtwc_wp WP111946 14.9000 156.200 60 0 14.9000 156.200 TC 60 14.9000 156.200 2 14.9000 156.200 60 983 180 11 310
1946251N11165 1946 52 WP MM PRISCILL 1946-09-09 15:00:00 TS 15.2858 155.734 main 2084 2084 P________PPP__ WP111946 15.2851 155.735 62 0 15.2851 155.735 TC 62 15.2878 155.731 2 15.2851 155.735 62 980 210 12 313
1946251N11165 1946 52 WP MM PRISCILL 1946-09-09 18:00:00 TS 15.7000 155.300 main 2117 2117 O________OOO__ jtwc_wp WP111946 15.7000 155.300 65 1 15.7000 155.300 TC 65 15.7000 155.300 3 65 15.7000 155.300 65 977 240 11 319
1946251N11165 1946 52 WP MM PRISCILL 1946-09-09 21:00:00 TS 16.0985 154.997 main 2153 2153 P________PPP__ WP111946 16.0997 155.000 67 1 16.0997 155.000 TC 67 16.0948 154.987 3 67 16.0997 155.000 67 974 270 10 324
1946251N11165 1946 52 WP MM PRISCILL 1946-09-10 00:00:00 TS 16.5000 154.700 main 2190 2190 O________OOO__ jtwc_wp WP111946 16.5000 154.700 70 1 16.5000 154.700 TC 70 16.5000 154.700 4 70 16.5000 154.700 70 971 300 11 319
1946251N11165 1946 52 WP MM PRISCILL 1946-09-10 03:00:00 TS 16.8991 154.272 main 2227 2225 P________PPP__ WP111946 16.8851 154.265 75 1 16.8851 154.265 TC 75 16.9411 154.294 4 72 16.8851 154.265 75 968 300 12 314
1946251N11165 1946 52 WP MM PRISCILL 1946-09-10 06:00:00 TS 17.3252 153.810 main 2262 2262 O________OPO__ jtwc_wp WP111946 17.3000 153.800 80 1 17.3000 153.800 TC 80 17.4008 153.841 4 75 17.3000 153.800 80 966 300 13 317
1946251N11165 1946 52 WP MM PRISCILL 1946-09-10 09:00:00 TS 17.8094 153.376 main 2312 2258 P________PPP__ WP111946 17.7925 153.370 80 1 17.7925 153.370 TC 80 17.8600 153.392 4 77 17.7925 153.370 80 963 330 12 322
1946251N11165 1946 52 WP MM PRISCILL 1946-09-10 12:00:00 TS 18.3000 153.000 main 2258 2204 O________OOO__ jtwc_wp WP111946 18.3000 153.000 80 1 18.3000 153.000 TC 80 18.3000 153.000 4 80 18.3000 153.000 80 960 360 11 327
1946251N11165 1946 52 WP MM PRISCILL 1946-09-10 15:00:00 TS 18.7640 152.715 main 2194 2145 P________PPP__ WP111946 18.7799 152.712 82 1 18.7799 152.712 TC 82 18.7163 152.722 4 81 18.7799 152.712 82 957 390 10 332
1946251N11165 1946 52 WP MM PRISCILL 1946-09-10 18:00:00 TS 19.1773 152.502 main 2145 2105 O________OPO__ jtwc_wp WP111946 19.2000 152.500 85 2 19.2000 152.500 TC 85 19.1094 152.509 4 82 19.2000 152.500 85 954 420 8 334
1946251N11165 1946 52 WP MM PRISCILL 1946-09-10 21:00:00 TS 19.5156 152.331 main 2105 2071 P________PPP__ WP111946 19.5300 152.327 85 2 19.5300 152.327 TC 85 19.4727 152.341 4 83 19.5300 152.327 85 951 450 7 335
1946251N11165 1946 52 WP MM PRISCILL 1946-09-11 00:00:00 TS 19.8000 152.200 main 2071 2047 O________OOO__ jtwc_wp WP111946 19.8000 152.200 85 2 19.8000 152.200 TC 85 19.8000 152.200 4 85 19.8000 152.200 85 948 480 6 337
1946251N11165 1946 52 WP MM PRISCILL 1946-09-11 03:00:00 TS 20.0625 152.084 main 2037 2013 P________PPP__ WP111946 20.0575 152.100 87 2 20.0575 152.100 TC 87 20.0777 152.037 4 88 20.0575 152.100 87 946 480 6 337
1946251N11165 1946 52 WP MM PRISCILL 1946-09-11 06:00:00 TS 20.3056 151.974 main 2013 1983 O________OPO__ jtwc_wp WP111946 20.3000 152.000 90 2 20.3000 152.000 TC 90 20.3224 151.897 4 92 20.3000 152.000 90 945 480 5 333
1946251N11165 1946 52 WP MM PRISCILL 1946-09-11 09:00:00 TS 20.5402 151.828 main 1983 1949 P________PPP__ WP111946 20.5350 151.843 95 2 20.5350 151.843 TC 95 20.5559 151.784 4 96 20.5350 151.843 95 946 480 6 333
1946251N11165 1946 52 WP MM PRISCILL 1946-09-11 12:00:00 TS 20.8000 151.700 main 1949 1915 O________OOO__ jtwc_wp WP111946 20.8000 151.700 100 3 20.8000 151.700 TC 100 20.8000 151.700 4 100 20.8000 151.700 100 948 480 6 342
1946251N11165 1946 52 WP MM PRISCILL 1946-09-11 15:00:00 TS 21.1339 151.627 main 1915 1877 P________PPP__ WP111946 21.1500 151.627 97 3 21.1500 151.627 TC 97 21.0856 151.626 4 97 21.1500 151.627 97 951 480 7 352
1946251N11165 1946 52 WP MM PRISCILL 1946-09-11 18:00:00 TS 21.4712 151.596 main 1877 1859 O________OPO__ jtwc_wp WP111946 21.5000 151.600 95 2 21.5000 151.600 TC 95 21.3849 151.583 4 95 21.5000 151.600 95 954 480 6 355
1946251N11165 1946 52 WP MM PRISCILL 1946-09-11 21:00:00 TS 21.7411 151.582 main 1859 1831 P________PPP__ WP111946 21.7575 151.585 92 2 21.7575 151.585 TC 92 21.6918 151.573 4 92 21.7575 151.585 92 956 480 5 3
1946251N11165 1946 52 WP MM PRISCILL 1946-09-12 00:00:00 TS 22.0000 151.600 main 1831 1803 O________OOO__ jtwc_wp WP111946 22.0000 151.600 90 2 22.0000 151.600 TC 90 22.0000 151.600 4 90 22.0000 151.600 90 958 480 6 3
1946251N11165 1946 52 WP MM PRISCILL 1946-09-12 03:00:00 TS 22.2984 151.633 main 1803 1781 P________PPP__ WP111946 22.2925 151.628 90 2 22.2925 151.628 TC 90 22.3162 151.648 4 90 22.2925 151.628 90 958 510 6 9
1946251N11165 1946 52 WP MM PRISCILL 1946-09-12 06:00:00 TS 22.6075 151.708 main 1781 1760 O________OPO__ jtwc_wp WP111946 22.6000 151.700 90 2 22.6000 151.700 TC 90 22.6299 151.732 4 90 22.6000 151.700 90 959 540 7 17
1946251N11165 1946 52 WP MM PRISCILL 1946-09-12 09:00:00 TS 22.9184 151.839 main 1760 1745 P________PPP__ WP111946 22.9150 151.835 90 2 22.9150 151.835 TC 90 22.9287 151.851 4 90 22.9150 151.835 90 959 570 7 24
1946251N11165 1946 52 WP MM PRISCILL 1946-09-12 12:00:00 TS 23.2000 152.000 main 1745 1734 O________OOO__ jtwc_wp WP111946 23.2000 152.000 90 2 23.2000 152.000 TC 90 23.2000 152.000 4 90 23.2000 152.000 90 959 600 6 29
1946251N11165 1946 52 WP MM PRISCILL 1946-09-12 15:00:00 TS 23.4214 152.140 main 1734 1729 P________PPP__ WP111946 23.4149 152.135 90 2 23.4149 152.135 TC 90 23.4408 152.155 4 90 23.4149 152.135 90 958 570 5 35
1946251N11165 1946 52 WP MM PRISCILL 1946-09-12 18:00:00 TS 23.6131 152.310 main 1729 1725 O________OPO__ jtwc_wp WP111946 23.6000 152.300 90 2 23.6000 152.300 TC 90 23.6523 152.340 4 90 23.6000 152.300 90 958 540 5 43
1946251N11165 1946 52 WP MM PRISCILL 1946-09-12 21:00:00 TS 23.8207 152.540 main 1725 1721 P________PPP__ WP111946 23.8150 152.535 90 2 23.8150 152.535 TC 90 23.8376 152.555 4 90 23.8150 152.535 90 957 540 6 49
1946251N11165 1946 52 WP MM PRISCILL 1946-09-13 00:00:00 TS 24.0000 152.800 main 1727 1726 O________OOO__ jtwc_wp WP111946 24.0000 152.800 90 2 24.0000 152.800 TC 90 24.0000 152.800 4 90 24.0000 152.800 90 956 540 5 57
1946251N11165 1946 52 WP MM PRISCILL 1946-09-13 03:00:00 TS 24.1151 153.040 main 1732 1731 P________PPP__ WP111946 24.1074 153.035 90 2 24.1074 153.035 TC 90 24.1383 153.056 4 90 24.1074 153.035 90 953 540 5 65
1946251N11165 1946 52 WP MM PRISCILL 1946-09-13 06:00:00 TS 24.2143 153.310 main 1744 1743 O________OPO__ jtwc_wp WP111946 24.2000 153.300 90 2 24.2000 153.300 TC 90 24.2572 153.341 4 90 24.2000 153.300 90 950 540 6 67
1946251N11165 1946 52 WP MM PRISCILL 1946-09-13 09:00:00 TS 24.3500 153.640 main 1749 1749 P________PPP__ WP111946 24.3425 153.635 90 2 24.3425 153.635 TC 90 24.3725 153.656 4 90 24.3425 153.635 90 945 570 7 66
1946251N11165 1946 52 WP MM PRISCILL 1946-09-13 12:00:00 TS 24.5000 154.000 main 1769 1768 O________OOO__ jtwc_wp WP111946 24.5000 154.000 90 2 24.5000 154.000 TC 90 24.5000 154.000 4 90 24.5000 154.000 90 940 600 7 65
1946251N11165 1946 52 WP MM PRISCILL 1946-09-13 15:00:00 TS 24.6478 154.341 main 1782 1781 P________PPP__ WP111946 24.6423 154.335 92 2 24.6423 154.335 TC 92 24.6645 154.359 4 92 24.6423 154.335 92 938 600 7 64
1946251N11165 1946 52 WP MM PRISCILL 1946-09-13 18:00:00 TS 24.8105 154.712 main 1793 1793 O________OPO__ jtwc_wp WP111946 24.8000 154.700 95 2 24.8000 154.700 TC 95 24.8421 154.748 4 95 24.8000 154.700 95 936 600 8 64
1946251N11165 1946 52 WP MM PRISCILL 1946-09-13 21:00:00 TS 25.0116 155.147 main 1806 1805 P________PPP__ WP111946 25.0076 155.142 97 3 25.0076 155.142 TC 97 25.0237 155.162 4 97 25.0076 155.142 97 935 600 9 64
1946251N11165 1946 52 WP MM PRISCILL 1946-09-14 00:00:00 TS 25.2000 155.600 main 1827 1827 O________OOO__ jtwc_wp WP111946 25.2000 155.600 100 3 25.2000 155.600 TC 100 25.2000 155.600 4 100 25.2000 155.600 100 935 600 8 69
1946251N11165 1946 52 WP MM PRISCILL 1946-09-14 03:00:00 TS 25.3077 155.995 main 1848 1848 P________PPP__ WP111946 25.2996 155.985 97 3 25.2996 155.985 TC 97 25.3319 156.023 4 97 25.2996 155.985 97 936 570 8 74
1946251N11165 1946 52 WP MM PRISCILL 1946-09-14 06:00:00 TS 25.4152 156.417 main 1871 1871 O________OPO__ jtwc_wp WP111946 25.4000 156.400 95 2 25.4000 156.400 TC 95 25.4610 156.470 4 95 25.4000 156.400 95 937 540 9 72
1946251N11165 1946 52 WP MM PRISCILL 1946-09-14 09:00:00 TS 25.5799 156.929 main 1894 1894 P________PPP__ WP111946 25.5699 156.920 92 2 25.5699 156.920 TC 92 25.6097 156.957 4 92 25.5699 156.920 92 940 510 11 68
1946251N11165 1946 52 WP MM PRISCILL 1946-09-14 12:00:00 TS 25.8000 157.500 main 1926 1926 O________OOO__ jtwc_wp WP111946 25.8000 157.500 90 2 25.8000 157.500 TC 90 25.8000 157.500 4 90 25.8000 157.500 90 944 480 12 64
1946251N11165 1946 52 WP MM PRISCILL 1946-09-14 15:00:00 TS 26.0768 158.085 main 1952 1952 P________PPP__ WP111946 26.0845 158.070 87 2 26.0845 158.070 TC 87 26.0535 158.129 4 87 26.0845 158.070 87 948 480 13 62
1946251N11165 1946 52 WP MM PRISCILL 1946-09-14 18:00:00 TS 26.3871 158.728 main 1980 1980 O________OPO__ jtwc_wp WP111946 26.4000 158.700 85 2 26.4000 158.700 TC 85 26.3484 158.812 4 85 26.4000 158.700 85 952 480 14 63
1946251N11165 1946 52 WP MM PRISCILL 1946-09-14 21:00:00 TS 26.6923 159.455 main 2026 2026 P________PPP__ WP111946 26.7001 159.435 82 1 26.7001 159.435 TC 82 26.6690 159.514 4 82 26.7001 159.435 82 955 480 15 65
1946251N11165 1946 52 WP MM PRISCILL 1946-09-15 00:00:00 TS 27.0000 160.200 main 2065 2065 O________OOO__ jtwc_wp WP111946 27.0000 160.200 80 1 27.0000 160.200 TC 80 27.0000 160.200 4 80 27.0000 160.200 80 958 480 14 65
1946251N11165 1946 52 WP MM PRISCILL 1946-09-15 03:00:00 TS 27.3017 160.914 main 2106 2106 P________PPP__ WP111946 27.2924 160.938 75 1 27.2924 160.938 TC 75 27.3294 160.843 4 76 27.2924 160.938 75 961 480 14 63
1946251N11165 1946 52 WP MM PRISCILL 1946-09-15 06:00:00 TS 27.6119 161.568 main 2148 2148 O________OPO__ jtwc_wp WP111946 27.6000 161.600 70 1 27.6000 161.600 TC 70 27.6556 161.448 4 72 27.6000 161.600 70 964 480 13 59
1946251N11165 1946 52 WP MM PRISCILL 1946-09-15 09:00:00 TS 27.9480 162.139 main 2175 2175 P________PPP__ WP111946 27.9423 162.168 67 1 27.9423 162.168 TC 67 27.9790 162.029 4 68 27.9401 162.137 67 966 480 11 53
1946251N11165 1946 52 WP MM PRISCILL 1946-09-15 12:00:00 TS 28.3000 162.600 main 2197 2197 O________OOO__ jtwc_wp WP111946 28.3000 162.600 65 1 28.3000 162.600 TC 65 28.3000 162.600 4 65 28.3000 162.600 65 969 480 10 47
1946251N11165 1946 52 WP MM PRISCILL 1946-09-15 15:00:00 TS 28.5973 162.933 main 2207 2187 P________P____ WP111946 28.5973 162.933 65 1 28.5973 162.933 TC 65 4 8 32
1946251N11165 1946 52 WP MM PRISCILL 1946-09-15 18:00:00 TS 29.0000 163.100 main 2187 2114 O________O____ jtwc_wp WP111946 29.0000 163.100 65 1 29.0000 163.100 TC 65 4 11 4
1946251N11165 1946 52 WP MM PRISCILL 1946-09-15 21:00:00 TS 29.6922 163.014 main 2114 2047 P________P____ WP111946 29.6922 163.014 65 1 29.6922 163.014 TC 65 4 14 356
1946251N11165 1946 52 WP MM PRISCILL 1946-09-16 00:00:00 TS 30.4000 163.000 main 2047 2028 O________O____ jtwc_wp WP111946 30.4000 163.000 65 1 30.4000 163.000 TC 65 12 19
1946251N11165 1946 52 WP MM PRISCILL 1946-09-16 03:00:00 TS 30.8082 163.447 main 2028 2020 P________P____ WP111946 30.8082 163.447 65 1 30.8082 163.447 TC 65 12 47
1946251N11165 1946 52 WP MM PRISCILL 1946-09-16 06:00:00 TS 31.2000 164.000 main 2021 1977 O________O____ jtwc_wp WP111946 31.2000 164.000 65 1 31.2000 164.000 TC 65 12 35
1946251N11165 1946 52 WP MM PRISCILL 1946-09-16 09:00:00 TS 31.7963 164.250 main 1982 1934 P________P____ WP111946 31.7963 164.250 62 0 31.7963 164.250 TC 62 14 21
1946251N11165 1946 52 WP MM PRISCILL 1946-09-16 12:00:00 TS 32.5000 164.600 main 1934 1915 O________O____ jtwc_wp WP111946 32.5000 164.600 60 0 32.5000 164.600 TC 60 17 35
1946251N11165 1946 52 WP MM PRISCILL 1946-09-16 15:00:00 TS 33.1990 165.404 main 1915 1898 P________P____ WP111946 33.1990 165.404 60 0 33.1990 165.404 TC 60 21 43
1946251N11165 1946 52 WP MM PRISCILL 1946-09-16 18:00:00 TS 34.0000 166.300 main 1898 1860 O________O____ jtwc_wp WP111946 34.0000 166.300 60 0 34.0000 166.300 TC 60 22 36
1946251N11165 1946 52 WP MM PRISCILL 1946-09-16 21:00:00 TS 34.9618 166.954 main 1858 1812 P________P____ WP111946 34.9618 166.954 60 0 34.9618 166.954 TC 60 22 26
1946251N11165 1946 52 WP MM PRISCILL 1946-09-17 00:00:00 TS 36.0000 167.500 main 1811 1750 O________O____ jtwc_wp WP111946 36.0000 167.500 60 0 36.0000 167.500 TC 60 22 20
1946251N11165 1946 52 WP MM PRISCILL 1946-09-17 03:00:00 TS 37.0424 167.907 main 1750 1681 P________P____ WP111946 37.0424 167.907 60 0 37.0424 167.907 TC 60 22 22
1946251N11165 1946 52 WP MM PRISCILL 1946-09-17 06:00:00 TS 38.0000 168.500 main 1681 1663 O________O____ jtwc_wp WP111946 38.0000 168.500 60 0 38.0000 168.500 TC 60 23 39
1946251N11165 1946 52 WP MM PRISCILL 1946-09-17 09:00:00 TS 38.8093 169.745 main 1666 1663 P________P____ WP111946 38.8093 169.745 60 0 38.8093 169.745 TC 60 24 54
1946251N11165 1946 52 WP MM PRISCILL 1946-09-17 12:00:00 TS 39.4000 171.000 main 1681 1678 O________O____ jtwc_wp WP111946 39.4000 171.000 60 0 39.4000 171.000 TC 60 17 57
1946251N11165 1946 52 WP MM PRISCILL 1946-09-17 15:00:00 TS 39.7650 171.617 main 1680 1676 P________P____ WP111946 39.7650 171.617 57 0 39.7650 171.617 TC 57 10 52
1946251N11165 1946 52 WP MM PRISCILL 1946-09-17 18:00:00 TS 40.0000 172.000 main 1681 1676 O________O____ jtwc_wp WP111946 40.0000 172.000 55 0 40.0000 172.000 TC 55 8 55
1946251N11165 1946 52 WP MM PRISCILL 1946-09-17 21:00:00 TS 40.2423 172.501 main 1687 1678 P________P____ WP111946 40.2423 172.501 55 0 40.2423 172.501 TC 55 9 57
1946251N11165 1946 52 WP MM PRISCILL 1946-09-18 00:00:00 TS 40.5000 173.000 main 1686 1681 O________O____ jtwc_wp WP111946 40.5000 173.000 55 0 40.5000 173.000 TC 55 10 52
1946251N11165 1946 52 WP MM PRISCILL 1946-09-18 03:00:00 TS 40.8273 173.500 main 1687 1674 P________P____ WP111946 40.8273 173.500 52 0 40.8273 173.500 TC 52 10 47
1946251N11165 1946 52 WP MM PRISCILL 1946-09-18 06:00:00 TS 41.2000 174.000 main 1679 1661 O________O____ jtwc_wp WP111946 41.2000 174.000 50 0 41.2000 174.000 TC 50 11 43
1946251N11165 1946 52 WP MM PRISCILL 1946-09-18 09:00:00 TS 41.6296 174.485 main 1666 1649 P________P____ WP111946 41.6296 174.485 50 0 41.6296 174.485 TC 50 11 43
1946251N11165 1946 52 WP MM PRISCILL 1946-09-18 12:00:00 TS 42.0000 175.000 main 1654 1650 O________O____ jtwc_wp WP111946 42.0000 175.000 50 0 42.0000 175.000 TC 50 10 55
1946251N11165 1946 52 WP MM PRISCILL 1946-09-18 15:00:00 TS 42.1948 175.578 main 1652 1613 P________P____ WP111946 42.1948 175.578 47 0 42.1948 175.578 TC 47 9 71
1946251N11165 1946 52 WP MM PRISCILL 1946-09-18 18:00:00 TS 42.3000 176.200 main 1613 1574 O________O____ jtwc_wp WP111946 42.3000 176.200 45 0 42.3000 176.200 TC 45 9 78
1946251N11165 1946 52 WP MM PRISCILL 1946-09-18 21:00:00 TS 42.3845 176.829 main 1574 1531 P________P____ WP111946 42.3845 176.829 45 0 42.3845 176.829 TC 45 10 78
1946251N11165 1946 52 WP MM PRISCILL 1946-09-19 00:00:00 TS 42.5000 177.500 main 1531 1470 O________O____ jtwc_wp WP111946 42.5000 177.500 45 0 42.5000 177.500 TC 45 11 70
1946251N11165 1946 52 WP MM PRISCILL 1946-09-19 03:00:00 TS 42.7654 178.271 main 1465 1414 P________P____ WP111946 42.7654 178.271 42 0 42.7654 178.271 TC 42 12 66
1946251N11165 1946 52 WP MM PRISCILL 1946-09-19 06:00:00 TS 43.0000 179.000 main 1414 1401 O________O____ jtwc_wp WP111946 43.0000 179.000 40 0 43.0000 179.000 TC 40 9 80
1946251N11165 1946 52 WP MM PRISCILL 1946-09-19 09:00:00 TS 42.9221 179.432 main 1405 1369 P________P____ WP111946 42.9221 179.432 40 0 42.9221 179.432 TC 40 7 90
1946251N11165 1946 52 EP CP PRISCILL 1946-09-19 12:00:00 TS 43.0000 180.000 main 1369 1279 O________O____ jtwc_wp WP111946 43.0000 180.000 40 0 43.0000 180.000 TC 40 14 61
1946251N11165 1946 52 EP CP PRISCILL 1946-09-19 15:00:00 TS 43.5933 181.073 main 1266 1136 P________P____ WP111946 43.5933 -178.927 37 0 43.5933 -178.927 TC 37 23 50
1946251N11165 1946 52 EP CP PRISCILL 1946-09-19 18:00:00 TS 44.5000 182.500 main 1122 O________O____ jtwc_wp WP111946 44.5000 -177.500 35 0 44.5000 182.500 TC 35 27 48

Digital Typhoon Data and Search

About IBTrACS Database

This database is a web-friendly format of International Best Track Archive for Climate Stewardship (IBTrACS), a global best track data archive curated by NOAA dating back to 1842.

Updated: 2021-10-21